sensor_id;sensor_type;location;lat;lon;timestamp;P1;durP1;ratioP1;P2;durP2;ratioP2
21192;SDS011;10754;51.106;7.164;2022-08-18T00:01:17;10.48;;;9.70;;
21192;SDS011;10754;51.106;7.164;2022-08-18T00:03:43;10.43;;;9.52;;
21192;SDS011;10754;51.106;7.164;2022-08-18T00:06:09;10.88;;;10.00;;
21192;SDS011;10754;51.106;7.164;2022-08-18T00:08:35;12.48;;;11.43;;
21192;SDS011;10754;51.106;7.164;2022-08-18T00:11:01;13.32;;;12.32;;
21192;SDS011;10754;51.106;7.164;2022-08-18T00:13:27;12.18;;;11.27;;
21192;SDS011;10754;51.106;7.164;2022-08-18T00:15:52;12.43;;;11.32;;
21192;SDS011;10754;51.106;7.164;2022-08-18T00:18:18;12.75;;;11.65;;
21192;SDS011;10754;51.106;7.164;2022-08-18T00:20:44;12.63;;;11.52;;
21192;SDS011;10754;51.106;7.164;2022-08-18T00:23:10;12.52;;;11.57;;
21192;SDS011;10754;51.106;7.164;2022-08-18T00:25:35;11.32;;;10.50;;
21192;SDS011;10754;51.106;7.164;2022-08-18T00:28:01;12.35;;;11.35;;
21192;SDS011;10754;51.106;7.164;2022-08-18T00:30:27;11.23;;;10.43;;
21192;SDS011;10754;51.106;7.164;2022-08-18T00:32:54;13.43;;;12.43;;
21192;SDS011;10754;51.106;7.164;2022-08-18T00:35:25;13.95;;;12.95;;
21192;SDS011;10754;51.106;7.164;2022-08-18T00:37:57;13.18;;;12.07;;
21192;SDS011;10754;51.106;7.164;2022-08-18T00:40:25;12.38;;;11.43;;
21192;SDS011;10754;51.106;7.164;2022-08-18T00:42:59;12.90;;;11.93;;
21192;SDS011;10754;51.106;7.164;2022-08-18T00:45:28;13.50;;;12.40;;
21192;SDS011;10754;51.106;7.164;2022-08-18T00:47:56;14.38;;;13.27;;
21192;SDS011;10754;51.106;7.164;2022-08-18T00:50:26;15.13;;;13.95;;
21192;SDS011;10754;51.106;7.164;2022-08-18T00:53:00;14.45;;;13.45;;
21192;SDS011;10754;51.106;7.164;2022-08-18T00:55:28;14.30;;;13.30;;
21192;SDS011;10754;51.106;7.164;2022-08-18T00:57:57;13.82;;;12.88;;
21192;SDS011;10754;51.106;7.164;2022-08-18T01:00:27;13.55;;;12.60;;
21192;SDS011;10754;51.106;7.164;2022-08-18T01:02:55;13.73;;;12.73;;
21192;SDS011;10754;51.106;7.164;2022-08-18T01:07:49;14.93;;;13.70;;
21192;SDS011;10754;51.106;7.164;2022-08-18T01:10:16;13.80;;;12.60;;
21192;SDS011;10754;51.106;7.164;2022-08-18T01:12:47;12.52;;;11.52;;
21192;SDS011;10754;51.106;7.164;2022-08-18T01:15:15;13.38;;;12.38;;
21192;SDS011;10754;51.106;7.164;2022-08-18T01:17:42;13.40;;;12.50;;
21192;SDS011;10754;51.106;7.164;2022-08-18T01:20:28;13.02;;;12.13;;
21192;SDS011;10754;51.106;7.164;2022-08-18T01:23:44;13.77;;;12.68;;
21192;SDS011;10754;51.106;7.164;2022-08-18T01:26:12;13.60;;;12.60;;
21192;SDS011;10754;51.106;7.164;2022-08-18T01:28:39;14.07;;;13.07;;
21192;SDS011;10754;51.106;7.164;2022-08-18T01:31:09;14.60;;;13.50;;
21192;SDS011;10754;51.106;7.164;2022-08-18T01:33:37;15.25;;;14.07;;
21192;SDS011;10754;51.106;7.164;2022-08-18T01:36:11;16.42;;;15.07;;
21192;SDS011;10754;51.106;7.164;2022-08-18T01:38:40;15.75;;;14.45;;
21192;SDS011;10754;51.106;7.164;2022-08-18T01:41:10;15.52;;;14.23;;
21192;SDS011;10754;51.106;7.164;2022-08-18T01:43:36;15.48;;;14.38;;
21192;SDS011;10754;51.106;7.164;2022-08-18T01:46:02;15.60;;;14.40;;
21192;SDS011;10754;51.106;7.164;2022-08-18T01:48:29;14.38;;;13.27;;
21192;SDS011;10754;51.106;7.164;2022-08-18T01:51:02;15.20;;;14.10;;
21192;SDS011;10754;51.106;7.164;2022-08-18T01:53:29;16.33;;;15.10;;
21192;SDS011;10754;51.106;7.164;2022-08-18T01:55:55;16.10;;;14.82;;
21192;SDS011;10754;51.106;7.164;2022-08-18T01:58:21;15.50;;;14.30;;
21192;SDS011;10754;51.106;7.164;2022-08-18T02:00:52;14.55;;;13.52;;
21192;SDS011;10754;51.106;7.164;2022-08-18T02:03:22;14.85;;;13.63;;
21192;SDS011;10754;51.106;7.164;2022-08-18T02:05:52;14.90;;;13.73;;
21192;SDS011;10754;51.106;7.164;2022-08-18T02:08:23;15.18;;;14.07;;
21192;SDS011;10754;51.106;7.164;2022-08-18T02:10:48;14.23;;;13.23;;
21192;SDS011;10754;51.106;7.164;2022-08-18T02:13:14;13.45;;;12.48;;
21192;SDS011;10754;51.106;7.164;2022-08-18T02:15:39;13.93;;;12.93;;
21192;SDS011;10754;51.106;7.164;2022-08-18T02:18:06;15.02;;;13.82;;
21192;SDS011;10754;51.106;7.164;2022-08-18T02:20:41;14.40;;;13.30;;
21192;SDS011;10754;51.106;7.164;2022-08-18T02:23:07;15.93;;;14.70;;
21192;SDS011;10754;51.106;7.164;2022-08-18T02:25:33;15.95;;;14.68;;
21192;SDS011;10754;51.106;7.164;2022-08-18T02:27:58;16.30;;;15.10;;
21192;SDS011;10754;51.106;7.164;2022-08-18T02:30:24;15.30;;;14.20;;
21192;SDS011;10754;51.106;7.164;2022-08-18T02:32:49;14.95;;;13.85;;
21192;SDS011;10754;51.106;7.164;2022-08-18T02:35:15;15.02;;;13.93;;
21192;SDS011;10754;51.106;7.164;2022-08-18T02:37:42;15.65;;;14.35;;
21192;SDS011;10754;51.106;7.164;2022-08-18T02:40:11;15.68;;;14.32;;
21192;SDS011;10754;51.106;7.164;2022-08-18T02:42:38;16.35;;;15.15;;
21192;SDS011;10754;51.106;7.164;2022-08-18T02:45:04;15.82;;;14.50;;
21192;SDS011;10754;51.106;7.164;2022-08-18T02:47:30;14.65;;;13.50;;
21192;SDS011;10754;51.106;7.164;2022-08-18T02:49:55;14.95;;;13.80;;
21192;SDS011;10754;51.106;7.164;2022-08-18T02:52:21;15.43;;;14.07;;
21192;SDS011;10754;51.106;7.164;2022-08-18T02:54:48;14.63;;;13.45;;
21192;SDS011;10754;51.106;7.164;2022-08-18T02:57:14;14.77;;;13.68;;
21192;SDS011;10754;51.106;7.164;2022-08-18T02:59:40;14.82;;;13.68;;
21192;SDS011;10754;51.106;7.164;2022-08-18T03:02:06;14.63;;;13.52;;
21192;SDS011;10754;51.106;7.164;2022-08-18T03:04:33;14.70;;;13.57;;
21192;SDS011;10754;51.106;7.164;2022-08-18T03:07:01;14.48;;;13.48;;
21192;SDS011;10754;51.106;7.164;2022-08-18T03:09:28;15.13;;;13.95;;
21192;SDS011;10754;51.106;7.164;2022-08-18T03:11:55;15.02;;;13.90;;
21192;SDS011;10754;51.106;7.164;2022-08-18T03:14:22;14.98;;;13.88;;
21192;SDS011;10754;51.106;7.164;2022-08-18T03:16:48;16.98;;;15.77;;
21192;SDS011;10754;51.106;7.164;2022-08-18T03:19:14;15.40;;;14.30;;
21192;SDS011;10754;51.106;7.164;2022-08-18T03:21:40;16.20;;;14.93;;
21192;SDS011;10754;51.106;7.164;2022-08-18T03:24:11;17.45;;;16.05;;
21192;SDS011;10754;51.106;7.164;2022-08-18T03:26:41;15.85;;;14.55;;
21192;SDS011;10754;51.106;7.164;2022-08-18T03:29:08;16.17;;;14.88;;
21192;SDS011;10754;51.106;7.164;2022-08-18T03:31:34;15.55;;;14.40;;
21192;SDS011;10754;51.106;7.164;2022-08-18T03:34:02;15.60;;;14.50;;
21192;SDS011;10754;51.106;7.164;2022-08-18T03:36:29;15.85;;;14.63;;
21192;SDS011;10754;51.106;7.164;2022-08-18T03:38:56;16.30;;;14.93;;
21192;SDS011;10754;51.106;7.164;2022-08-18T03:41:23;15.55;;;14.27;;
21192;SDS011;10754;51.106;7.164;2022-08-18T03:43:50;16.05;;;14.75;;
21192;SDS011;10754;51.106;7.164;2022-08-18T03:46:17;17.70;;;16.33;;
21192;SDS011;10754;51.106;7.164;2022-08-18T03:48:45;17.95;;;16.55;;
21192;SDS011;10754;51.106;7.164;2022-08-18T03:51:13;17.05;;;15.75;;
21192;SDS011;10754;51.106;7.164;2022-08-18T03:53:44;19.30;;;17.77;;
21192;SDS011;10754;51.106;7.164;2022-08-18T03:56:12;23.88;;;21.88;;
21192;SDS011;10754;51.106;7.164;2022-08-18T03:59:02;25.83;;;23.73;;
21192;SDS011;10754;51.106;7.164;2022-08-18T04:01:28;25.70;;;23.25;;
21192;SDS011;10754;51.106;7.164;2022-08-18T04:03:57;27.08;;;24.73;;
21192;SDS011;10754;51.106;7.164;2022-08-18T04:06:28;34.15;;;31.05;;
21192;SDS011;10754;51.106;7.164;2022-08-18T04:08:56;35.28;;;31.92;;
21192;SDS011;10754;51.106;7.164;2022-08-18T04:11:24;35.40;;;32.13;;
21192;SDS011;10754;51.106;7.164;2022-08-18T04:13:52;36.33;;;32.83;;
21192;SDS011;10754;51.106;7.164;2022-08-18T04:16:22;45.75;;;40.95;;
21192;SDS011;10754;51.106;7.164;2022-08-18T04:18:51;44.45;;;39.97;;
21192;SDS011;10754;51.106;7.164;2022-08-18T04:21:17;44.25;;;39.78;;
21192;SDS011;10754;51.106;7.164;2022-08-18T04:23:43;41.75;;;37.45;;
21192;SDS011;10754;51.106;7.164;2022-08-18T04:26:09;46.92;;;42.03;;
21192;SDS011;10754;51.106;7.164;2022-08-18T04:28:36;49.17;;;41.58;;
21192;SDS011;10754;51.106;7.164;2022-08-18T04:31:09;44.97;;;40.38;;
21192;SDS011;10754;51.106;7.164;2022-08-18T04:33:37;43.40;;;39.00;;
21192;SDS011;10754;51.106;7.164;2022-08-18T04:36:10;44.00;;;39.50;;
21192;SDS011;10754;51.106;7.164;2022-08-18T04:38:38;45.13;;;40.40;;
21192;SDS011;10754;51.106;7.164;2022-08-18T04:41:08;43.22;;;38.85;;
21192;SDS011;10754;51.106;7.164;2022-08-18T04:43:36;43.80;;;39.00;;
21192;SDS011;10754;51.106;7.164;2022-08-18T04:46:02;43.20;;;38.63;;
21192;SDS011;10754;51.106;7.164;2022-08-18T04:48:28;45.05;;;39.22;;
21192;SDS011;10754;51.106;7.164;2022-08-18T04:50:57;44.25;;;39.35;;
21192;SDS011;10754;51.106;7.164;2022-08-18T04:53:43;44.92;;;39.05;;
21192;SDS011;10754;51.106;7.164;2022-08-18T04:58:45;45.13;;;40.38;;
21192;SDS011;10754;51.106;7.164;2022-08-18T05:01:15;46.25;;;41.35;;
21192;SDS011;10754;51.106;7.164;2022-08-18T05:03:41;46.58;;;41.42;;
21192;SDS011;10754;51.106;7.164;2022-08-18T05:06:08;45.83;;;40.95;;
21192;SDS011;10754;51.106;7.164;2022-08-18T05:08:33;46.15;;;41.30;;
21192;SDS011;10754;51.106;7.164;2022-08-18T05:10:59;50.95;;;43.80;;
21192;SDS011;10754;51.106;7.164;2022-08-18T05:13:24;51.22;;;42.95;;
21192;SDS011;10754;51.106;7.164;2022-08-18T05:15:54;47.17;;;41.63;;
21192;SDS011;10754;51.106;7.164;2022-08-18T05:18:22;53.00;;;45.40;;
21192;SDS011;10754;51.106;7.164;2022-08-18T05:20:49;53.95;;;46.72;;
21192;SDS011;10754;51.106;7.164;2022-08-18T05:23:15;50.88;;;44.20;;
21192;SDS011;10754;51.106;7.164;2022-08-18T05:25:41;57.90;;;47.65;;
21192;SDS011;10754;51.106;7.164;2022-08-18T05:28:07;50.95;;;44.15;;
21192;SDS011;10754;51.106;7.164;2022-08-18T05:30:33;50.88;;;44.40;;
21192;SDS011;10754;51.106;7.164;2022-08-18T05:33:00;57.78;;;47.67;;
21192;SDS011;10754;51.106;7.164;2022-08-18T05:35:33;57.38;;;46.58;;
21192;SDS011;10754;51.106;7.164;2022-08-18T05:41:12;52.38;;;43.83;;
21192;SDS011;10754;51.106;7.164;2022-08-18T05:43:43;59.17;;;47.58;;
21192;SDS011;10754;51.106;7.164;2022-08-18T05:46:11;59.53;;;47.55;;
21192;SDS011;10754;51.106;7.164;2022-08-18T05:48:36;53.92;;;47.33;;
21192;SDS011;10754;51.106;7.164;2022-08-18T05:51:13;58.50;;;46.35;;
21192;SDS011;10754;51.106;7.164;2022-08-18T05:53:46;51.92;;;45.97;;
21192;SDS011;10754;51.106;7.164;2022-08-18T05:56:33;52.22;;;44.47;;
21192;SDS011;10754;51.106;7.164;2022-08-18T05:59:22;55.47;;;44.38;;
21192;SDS011;10754;51.106;7.164;2022-08-18T06:01:54;53.22;;;45.45;;
21192;SDS011;10754;51.106;7.164;2022-08-18T06:04:29;54.45;;;45.28;;
21192;SDS011;10754;51.106;7.164;2022-08-18T06:07:32;53.17;;;45.45;;
21192;SDS011;10754;51.106;7.164;2022-08-18T06:10:00;56.03;;;45.80;;
21192;SDS011;10754;51.106;7.164;2022-08-18T06:18:20;51.60;;;44.38;;
21192;SDS011;10754;51.106;7.164;2022-08-18T06:21:16;47.55;;;41.17;;
21192;SDS011;10754;51.106;7.164;2022-08-18T06:26:56;48.03;;;41.60;;
21192;SDS011;10754;51.106;7.164;2022-08-18T06:32:46;49.33;;;40.55;;
21192;SDS011;10754;51.106;7.164;2022-08-18T06:35:39;52.10;;;42.17;;
21192;SDS011;10754;51.106;7.164;2022-08-18T06:38:27;48.13;;;41.90;;
21192;SDS011;10754;51.106;7.164;2022-08-18T06:44:01;42.00;;;37.33;;
21192;SDS011;10754;51.106;7.164;2022-08-18T06:46:39;43.08;;;38.17;;
21192;SDS011;10754;51.106;7.164;2022-08-18T06:49:07;42.70;;;38.08;;
21192;SDS011;10754;51.106;7.164;2022-08-18T06:51:38;45.88;;;38.90;;
21192;SDS011;10754;51.106;7.164;2022-08-18T06:54:05;44.05;;;39.25;;
21192;SDS011;10754;51.106;7.164;2022-08-18T07:02:00;44.17;;;38.25;;
21192;SDS011;10754;51.106;7.164;2022-08-18T07:04:42;43.08;;;37.97;;
21192;SDS011;10754;51.106;7.164;2022-08-18T07:07:33;42.72;;;38.13;;
21192;SDS011;10754;51.106;7.164;2022-08-18T07:10:03;40.38;;;36.03;;
21192;SDS011;10754;51.106;7.164;2022-08-18T07:12:31;40.03;;;35.88;;
21192;SDS011;10754;51.106;7.164;2022-08-18T07:14:59;40.60;;;36.30;;
21192;SDS011;10754;51.106;7.164;2022-08-18T07:17:28;42.28;;;37.72;;
21192;SDS011;10754;51.106;7.164;2022-08-18T07:19:59;41.20;;;36.90;;
21192;SDS011;10754;51.106;7.164;2022-08-18T07:22:50;40.40;;;36.03;;
21192;SDS011;10754;51.106;7.164;2022-08-18T07:25:20;38.95;;;34.75;;
21192;SDS011;10754;51.106;7.164;2022-08-18T07:27:50;40.90;;;36.47;;
21192;SDS011;10754;51.106;7.164;2022-08-18T07:32:50;39.70;;;35.55;;
21192;SDS011;10754;51.106;7.164;2022-08-18T07:35:22;38.95;;;35.00;;
21192;SDS011;10754;51.106;7.164;2022-08-18T07:38:13;40.30;;;36.13;;
21192;SDS011;10754;51.106;7.164;2022-08-18T07:41:10;40.63;;;36.33;;
21192;SDS011;10754;51.106;7.164;2022-08-18T07:46:37;41.35;;;37.05;;
21192;SDS011;10754;51.106;7.164;2022-08-18T07:49:09;41.53;;;37.22;;
21192;SDS011;10754;51.106;7.164;2022-08-18T07:51:46;41.72;;;37.53;;
21192;SDS011;10754;51.106;7.164;2022-08-18T07:57:17;40.90;;;36.40;;
21192;SDS011;10754;51.106;7.164;2022-08-18T08:07:53;37.50;;;33.83;;
21192;SDS011;10754;51.106;7.164;2022-08-18T08:13:02;37.40;;;33.78;;
21192;SDS011;10754;51.106;7.164;2022-08-18T08:18:36;33.80;;;30.60;;
21192;SDS011;10754;51.106;7.164;2022-08-18T08:21:09;33.10;;;30.05;;
21192;SDS011;10754;51.106;7.164;2022-08-18T08:23:54;34.00;;;30.92;;
21192;SDS011;10754;51.106;7.164;2022-08-18T08:26:50;32.05;;;28.95;;
21192;SDS011;10754;51.106;7.164;2022-08-18T08:32:24;32.58;;;29.63;;
21192;SDS011;10754;51.106;7.164;2022-08-18T08:34:58;32.10;;;29.23;;
21192;SDS011;10754;51.106;7.164;2022-08-18T08:37:52;31.85;;;28.92;;
21192;SDS011;10754;51.106;7.164;2022-08-18T08:40:31;32.10;;;29.20;;
21192;SDS011;10754;51.106;7.164;2022-08-18T08:43:10;31.25;;;28.45;;
21192;SDS011;10754;51.106;7.164;2022-08-18T08:46:26;31.98;;;29.17;;
21192;SDS011;10754;51.106;7.164;2022-08-18T08:48:42;32.20;;;29.23;;
21192;SDS011;10754;51.106;7.164;2022-08-18T08:51:35;31.85;;;28.30;;
21192;SDS011;10754;51.106;7.164;2022-08-18T08:56:39;30.48;;;27.77;;
21192;SDS011;10754;51.106;7.164;2022-08-18T08:59:12;31.63;;;28.70;;
21192;SDS011;10754;51.106;7.164;2022-08-18T09:18:20;29.20;;;26.40;;
21192;SDS011;10754;51.106;7.164;2022-08-18T09:21:25;27.80;;;25.08;;
21192;SDS011;10754;51.106;7.164;2022-08-18T09:24:14;28.13;;;25.48;;
21192;SDS011;10754;51.106;7.164;2022-08-18T09:40:10;27.00;;;24.67;;
21192;SDS011;10754;51.106;7.164;2022-08-18T09:43:14;26.95;;;24.45;;
21192;SDS011;10754;51.106;7.164;2022-08-18T09:45:51;25.63;;;23.33;;
21192;SDS011;10754;51.106;7.164;2022-08-18T09:53:33;25.85;;;23.50;;
21192;SDS011;10754;51.106;7.164;2022-08-18T09:59:29;25.05;;;22.92;;
21192;SDS011;10754;51.106;7.164;2022-08-18T10:02:03;24.77;;;22.45;;
21192;SDS011;10754;51.106;7.164;2022-08-18T10:04:33;23.88;;;21.77;;
21192;SDS011;10754;51.106;7.164;2022-08-18T10:09:49;21.98;;;20.10;;
21192;SDS011;10754;51.106;7.164;2022-08-18T10:12:27;22.98;;;20.80;;
21192;SDS011;10754;51.106;7.164;2022-08-18T10:14:59;21.75;;;19.92;;
21192;SDS011;10754;51.106;7.164;2022-08-18T10:20:58;20.00;;;18.27;;
21192;SDS011;10754;51.106;7.164;2022-08-18T10:31:30;18.98;;;17.27;;
21192;SDS011;10754;51.106;7.164;2022-08-18T10:34:35;19.20;;;17.60;;
21192;SDS011;10754;51.106;7.164;2022-08-18T10:37:01;19.02;;;17.42;;
21192;SDS011;10754;51.106;7.164;2022-08-18T10:42:06;19.27;;;17.58;;
21192;SDS011;10754;51.106;7.164;2022-08-18T10:44:45;17.33;;;15.93;;
21192;SDS011;10754;51.106;7.164;2022-08-18T10:47:25;19.55;;;17.75;;
21192;SDS011;10754;51.106;7.164;2022-08-18T10:49:52;18.90;;;17.30;;
21192;SDS011;10754;51.106;7.164;2022-08-18T10:52:21;19.98;;;18.02;;
21192;SDS011;10754;51.106;7.164;2022-08-18T10:55:15;19.92;;;18.02;;
21192;SDS011;10754;51.106;7.164;2022-08-18T10:58:08;17.33;;;15.73;;
21192;SDS011;10754;51.106;7.164;2022-08-18T11:03:33;19.77;;;18.15;;
21192;SDS011;10754;51.106;7.164;2022-08-18T11:06:15;18.60;;;16.85;;
21192;SDS011;10754;51.106;7.164;2022-08-18T11:08:46;18.05;;;16.40;;
21192;SDS011;10754;51.106;7.164;2022-08-18T11:11:14;17.13;;;15.52;;
21192;SDS011;10754;51.106;7.164;2022-08-18T11:16:33;18.65;;;16.88;;
21192;SDS011;10754;51.106;7.164;2022-08-18T11:19:08;18.33;;;16.83;;
21192;SDS011;10754;51.106;7.164;2022-08-18T11:26:39;19.00;;;17.20;;
21192;SDS011;10754;51.106;7.164;2022-08-18T11:31:57;16.17;;;14.88;;
21192;SDS011;10754;51.106;7.164;2022-08-18T11:34:30;17.10;;;15.68;;
21192;SDS011;10754;51.106;7.164;2022-08-18T11:37:04;19.15;;;17.48;;
21192;SDS011;10754;51.106;7.164;2022-08-18T11:39:47;16.77;;;15.32;;
21192;SDS011;10754;51.106;7.164;2022-08-18T11:42:15;17.35;;;15.95;;
21192;SDS011;10754;51.106;7.164;2022-08-18T11:44:42;18.13;;;16.42;;
21192;SDS011;10754;51.106;7.164;2022-08-18T11:47:12;16.15;;;14.85;;
21192;SDS011;10754;51.106;7.164;2022-08-18T11:49:48;16.50;;;15.20;;
21192;SDS011;10754;51.106;7.164;2022-08-18T11:52:24;18.48;;;16.77;;
21192;SDS011;10754;51.106;7.164;2022-08-18T11:55:04;17.83;;;16.33;;
21192;SDS011;10754;51.106;7.164;2022-08-18T11:57:48;16.67;;;15.27;;
21192;SDS011;10754;51.106;7.164;2022-08-18T12:00:35;17.17;;;15.68;;
21192;SDS011;10754;51.106;7.164;2022-08-18T12:03:03;16.88;;;15.50;;
21192;SDS011;10754;51.106;7.164;2022-08-18T12:05:42;16.95;;;15.55;;
21192;SDS011;10754;51.106;7.164;2022-08-18T12:08:47;17.27;;;15.75;;
21192;SDS011;10754;51.106;7.164;2022-08-18T12:11:15;15.63;;;14.18;;
21192;SDS011;10754;51.106;7.164;2022-08-18T12:13:44;15.43;;;14.13;;
21192;SDS011;10754;51.106;7.164;2022-08-18T12:16:13;15.10;;;13.68;;
21192;SDS011;10754;51.106;7.164;2022-08-18T12:18:41;15.63;;;14.23;;
21192;SDS011;10754;51.106;7.164;2022-08-18T12:21:07;15.35;;;14.15;;
21192;SDS011;10754;51.106;7.164;2022-08-18T12:23:34;14.85;;;13.55;;
21192;SDS011;10754;51.106;7.164;2022-08-18T12:26:01;14.00;;;12.80;;
21192;SDS011;10754;51.106;7.164;2022-08-18T12:28:26;16.10;;;14.70;;
21192;SDS011;10754;51.106;7.164;2022-08-18T12:30:52;15.50;;;14.20;;
21192;SDS011;10754;51.106;7.164;2022-08-18T12:33:18;16.95;;;15.55;;
21192;SDS011;10754;51.106;7.164;2022-08-18T12:35:43;14.50;;;13.27;;
21192;SDS011;10754;51.106;7.164;2022-08-18T12:38:09;14.10;;;12.82;;
21192;SDS011;10754;51.106;7.164;2022-08-18T12:40:36;17.08;;;15.68;;
21192;SDS011;10754;51.106;7.164;2022-08-18T12:43:02;14.68;;;13.48;;
21192;SDS011;10754;51.106;7.164;2022-08-18T12:45:28;13.30;;;12.10;;
21192;SDS011;10754;51.106;7.164;2022-08-18T12:47:54;14.75;;;13.23;;
21192;SDS011;10754;51.106;7.164;2022-08-18T12:50:20;13.68;;;12.40;;
21192;SDS011;10754;51.106;7.164;2022-08-18T12:52:46;14.57;;;13.27;;
21192;SDS011;10754;51.106;7.164;2022-08-18T12:55:11;12.65;;;11.65;;
21192;SDS011;10754;51.106;7.164;2022-08-18T12:57:37;13.05;;;11.75;;
21192;SDS011;10754;51.106;7.164;2022-08-18T13:00:03;14.15;;;12.95;;
21192;SDS011;10754;51.106;7.164;2022-08-18T13:02:31;13.00;;;12.00;;
21192;SDS011;10754;51.106;7.164;2022-08-18T13:04:57;14.95;;;13.55;;
21192;SDS011;10754;51.106;7.164;2022-08-18T13:07:22;12.20;;;11.30;;
21192;SDS011;10754;51.106;7.164;2022-08-18T13:09:48;13.40;;;12.40;;
21192;SDS011;10754;51.106;7.164;2022-08-18T13:12:14;13.05;;;12.07;;
21192;SDS011;10754;51.106;7.164;2022-08-18T13:14:40;12.70;;;11.52;;
21192;SDS011;10754;51.106;7.164;2022-08-18T13:17:05;13.65;;;12.32;;
21192;SDS011;10754;51.106;7.164;2022-08-18T13:19:31;13.90;;;12.85;;
21192;SDS011;10754;51.106;7.164;2022-08-18T13:21:56;13.07;;;11.88;;
21192;SDS011;10754;51.106;7.164;2022-08-18T13:24:22;13.13;;;12.02;;
21192;SDS011;10754;51.106;7.164;2022-08-18T13:26:48;11.25;;;10.38;;
21192;SDS011;10754;51.106;7.164;2022-08-18T13:29:14;11.82;;;10.82;;
21192;SDS011;10754;51.106;7.164;2022-08-18T13:31:41;13.32;;;12.13;;
21192;SDS011;10754;51.106;7.164;2022-08-18T13:34:07;11.20;;;10.27;;
21192;SDS011;10754;51.106;7.164;2022-08-18T13:36:33;10.10;;;9.23;;
21192;SDS011;10754;51.106;7.164;2022-08-18T13:39:12;10.60;;;9.80;;
21192;SDS011;10754;51.106;7.164;2022-08-18T13:41:39;9.50;;;8.80;;
21192;SDS011;10754;51.106;7.164;2022-08-18T13:44:08;9.65;;;8.73;;
21192;SDS011;10754;51.106;7.164;2022-08-18T13:46:37;8.82;;;7.97;;
21192;SDS011;10754;51.106;7.164;2022-08-18T13:49:09;10.43;;;9.60;;
21192;SDS011;10754;51.106;7.164;2022-08-18T13:51:39;9.88;;;8.88;;
21192;SDS011;10754;51.106;7.164;2022-08-18T13:54:06;7.75;;;7.05;;
21192;SDS011;10754;51.106;7.164;2022-08-18T13:56:32;9.00;;;8.15;;
21192;SDS011;10754;51.106;7.164;2022-08-18T13:58:57;9.05;;;8.25;;
21192;SDS011;10754;51.106;7.164;2022-08-18T14:01:23;9.05;;;8.32;;
21192;SDS011;10754;51.106;7.164;2022-08-18T14:03:49;10.77;;;9.07;;
21192;SDS011;10754;51.106;7.164;2022-08-18T14:06:14;10.05;;;9.35;;
21192;SDS011;10754;51.106;7.164;2022-08-18T14:08:40;8.95;;;8.25;;
21192;SDS011;10754;51.106;7.164;2022-08-18T14:11:06;7.90;;;7.20;;
21192;SDS011;10754;51.106;7.164;2022-08-18T14:13:32;9.27;;;8.48;;
21192;SDS011;10754;51.106;7.164;2022-08-18T14:15:58;9.82;;;8.98;;
21192;SDS011;10754;51.106;7.164;2022-08-18T14:18:25;9.23;;;8.63;;
21192;SDS011;10754;51.106;7.164;2022-08-18T14:20:51;8.50;;;7.93;;
21192;SDS011;10754;51.106;7.164;2022-08-18T14:23:35;8.93;;;8.23;;
21192;SDS011;10754;51.106;7.164;2022-08-18T14:26:19;9.35;;;8.55;;
21192;SDS011;10754;51.106;7.164;2022-08-18T14:29:03;8.20;;;7.38;;
21192;SDS011;10754;51.106;7.164;2022-08-18T14:31:30;7.45;;;6.75;;
21192;SDS011;10754;51.106;7.164;2022-08-18T14:33:55;9.88;;;8.98;;
21192;SDS011;10754;51.106;7.164;2022-08-18T14:36:21;8.35;;;7.63;;
21192;SDS011;10754;51.106;7.164;2022-08-18T14:38:48;8.98;;;8.23;;
21192;SDS011;10754;51.106;7.164;2022-08-18T14:41:14;8.88;;;8.18;;
21192;SDS011;10754;51.106;7.164;2022-08-18T14:43:40;8.02;;;7.20;;
21192;SDS011;10754;51.106;7.164;2022-08-18T14:46:07;9.13;;;8.43;;
21192;SDS011;10754;51.106;7.164;2022-08-18T14:48:33;8.50;;;7.90;;
21192;SDS011;10754;51.106;7.164;2022-08-18T14:51:00;9.05;;;8.35;;
21192;SDS011;10754;51.106;7.164;2022-08-18T14:53:28;9.70;;;8.90;;
21192;SDS011;10754;51.106;7.164;2022-08-18T14:55:57;8.98;;;8.18;;
21192;SDS011;10754;51.106;7.164;2022-08-18T14:58:25;9.65;;;8.65;;
21192;SDS011;10754;51.106;7.164;2022-08-18T15:00:57;11.20;;;10.30;;
21192;SDS011;10754;51.106;7.164;2022-08-18T15:03:25;11.23;;;10.38;;
21192;SDS011;10754;51.106;7.164;2022-08-18T15:05:52;9.77;;;8.98;;
21192;SDS011;10754;51.106;7.164;2022-08-18T15:08:18;10.35;;;9.45;;
21192;SDS011;10754;51.106;7.164;2022-08-18T15:10:44;10.63;;;9.63;;
21192;SDS011;10754;51.106;7.164;2022-08-18T15:13:10;11.32;;;10.52;;
21192;SDS011;10754;51.106;7.164;2022-08-18T15:15:36;10.63;;;9.70;;
21192;SDS011;10754;51.106;7.164;2022-08-18T15:18:02;11.40;;;10.35;;
21192;SDS011;10754;51.106;7.164;2022-08-18T15:20:28;11.77;;;10.68;;
21192;SDS011;10754;51.106;7.164;2022-08-18T15:22:54;10.73;;;10.02;;
21192;SDS011;10754;51.106;7.164;2022-08-18T15:25:43;10.18;;;9.38;;
21192;SDS011;10754;51.106;7.164;2022-08-18T15:28:11;10.02;;;9.20;;
21192;SDS011;10754;51.106;7.164;2022-08-18T15:30:41;10.20;;;9.48;;
21192;SDS011;10754;51.106;7.164;2022-08-18T15:33:11;11.30;;;10.50;;
21192;SDS011;10754;51.106;7.164;2022-08-18T15:35:39;10.55;;;9.82;;
21192;SDS011;10754;51.106;7.164;2022-08-18T15:38:07;10.23;;;9.32;;
21192;SDS011;10754;51.106;7.164;2022-08-18T15:40:36;8.90;;;8.20;;
21192;SDS011;10754;51.106;7.164;2022-08-18T15:43:10;8.52;;;7.78;;
21192;SDS011;10754;51.106;7.164;2022-08-18T15:45:37;9.30;;;8.60;;
21192;SDS011;10754;51.106;7.164;2022-08-18T15:48:05;9.15;;;8.55;;
21192;SDS011;10754;51.106;7.164;2022-08-18T15:50:30;11.40;;;8.73;;
21192;SDS011;10754;51.106;7.164;2022-08-18T15:52:57;10.15;;;9.32;;
21192;SDS011;10754;51.106;7.164;2022-08-18T15:55:28;9.80;;;9.00;;
21192;SDS011;10754;51.106;7.164;2022-08-18T15:57:55;9.18;;;8.57;;
21192;SDS011;10754;51.106;7.164;2022-08-18T16:00:21;9.30;;;8.60;;
21192;SDS011;10754;51.106;7.164;2022-08-18T16:02:52;9.07;;;8.20;;
21192;SDS011;10754;51.106;7.164;2022-08-18T16:05:23;8.90;;;8.30;;
21192;SDS011;10754;51.106;7.164;2022-08-18T16:07:52;9.25;;;8.65;;
21192;SDS011;10754;51.106;7.164;2022-08-18T16:10:20;9.55;;;8.82;;
21192;SDS011;10754;51.106;7.164;2022-08-18T16:12:47;9.35;;;8.55;;
21192;SDS011;10754;51.106;7.164;2022-08-18T16:15:14;9.60;;;8.90;;
21192;SDS011;10754;51.106;7.164;2022-08-18T16:17:41;9.63;;;8.93;;
21192;SDS011;10754;51.106;7.164;2022-08-18T16:20:07;9.18;;;8.38;;
21192;SDS011;10754;51.106;7.164;2022-08-18T16:22:34;9.10;;;8.25;;
21192;SDS011;10754;51.106;7.164;2022-08-18T16:25:02;9.38;;;8.68;;
21192;SDS011;10754;51.106;7.164;2022-08-18T16:27:30;9.48;;;8.57;;
21192;SDS011;10754;51.106;7.164;2022-08-18T16:29:58;10.07;;;9.25;;
21192;SDS011;10754;51.106;7.164;2022-08-18T16:32:23;9.80;;;9.10;;
21192;SDS011;10754;51.106;7.164;2022-08-18T16:34:50;9.55;;;8.95;;
21192;SDS011;10754;51.106;7.164;2022-08-18T16:37:16;9.50;;;8.80;;
21192;SDS011;10754;51.106;7.164;2022-08-18T16:39:42;10.07;;;9.25;;
21192;SDS011;10754;51.106;7.164;2022-08-18T16:42:08;9.52;;;8.70;;
21192;SDS011;10754;51.106;7.164;2022-08-18T16:44:36;9.32;;;8.70;;
21192;SDS011;10754;51.106;7.164;2022-08-18T16:47:05;9.63;;;8.73;;
21192;SDS011;10754;51.106;7.164;2022-08-18T16:49:31;9.40;;;8.70;;
21192;SDS011;10754;51.106;7.164;2022-08-18T16:51:58;9.15;;;8.45;;